createdAt,value
2022-11-09T00:02:02.310Z,29.52
2022-11-09T00:04:31.748Z,26.50
2022-11-09T00:07:10.943Z,26.52
2022-11-09T00:09:45.617Z,29.75
2022-11-09T00:12:21.979Z,31.65
2022-11-09T00:15:01.089Z,30.20
2022-11-09T00:18:05.400Z,35.67
2022-11-09T00:20:47.670Z,34.17
2022-11-09T00:23:39.742Z,32.47
2022-11-09T00:26:25.215Z,32.90
2022-11-09T00:28:53.121Z,33.63
2022-11-09T00:31:24.295Z,36.72
2022-11-09T00:34:24.881Z,35.42
2022-11-09T00:37:01.218Z,36.80
2022-11-09T00:39:38.255Z,35.28
2022-11-09T00:42:07.549Z,34.35
2022-11-09T00:44:41.764Z,35.90
2022-11-09T00:47:09.007Z,33.95
2022-11-09T00:49:49.426Z,36.53
2022-11-09T00:52:25.065Z,35.88
2022-11-09T00:58:44.725Z,34.92
2022-11-09T01:04:52.088Z,34.08
2022-11-09T01:07:32.548Z,34.97
2022-11-09T01:10:06.757Z,33.70
2022-11-09T01:12:41.997Z,34.33
2022-11-09T01:15:46.479Z,33.78
2022-11-09T01:20:47.168Z,32.13
2022-11-09T01:23:26.800Z,32.38
2022-11-09T01:26:22.155Z,28.92
2022-11-09T01:28:57.352Z,30.70
2022-11-09T01:31:26.616Z,29.00
2022-11-09T01:33:55.063Z,30.83
2022-11-09T01:36:46.876Z,29.45
2022-11-09T01:39:50.816Z,30.73
2022-11-09T01:42:29.589Z,28.25
2022-11-09T01:45:19.019Z,29.92
2022-11-09T01:48:21.128Z,28.42
2022-11-09T01:51:13.065Z,30.57
2022-11-09T01:54:22.748Z,28.35
2022-11-09T01:56:55.317Z,30.00
2022-11-09T01:59:37.159Z,31.33
2022-11-09T02:02:08.416Z,29.45
2022-11-09T02:04:48.052Z,31.23
2022-11-09T02:07:16.485Z,28.50
2022-11-09T02:09:57.113Z,31.27
2022-11-09T02:12:31.709Z,29.85
2022-11-09T02:15:02.345Z,29.92
2022-11-09T02:17:35.779Z,30.83
2022-11-09T02:20:07.340Z,31.05
2022-11-09T02:22:37.413Z,30.27
2022-11-09T02:25:06.082Z,31.05
2022-11-09T02:27:33.157Z,31.08
2022-11-09T02:30:01.486Z,30.60
2022-11-09T02:32:30.565Z,31.02
2022-11-09T02:35:00.659Z,30.67
2022-11-09T02:37:31.484Z,30.30
2022-11-09T02:40:01.593Z,31.10
2022-11-09T02:42:38.044Z,29.48
2022-11-09T02:45:06.677Z,30.88
2022-11-09T02:47:36.555Z,30.75
2022-11-09T02:50:05.256Z,31.38
2022-11-09T02:52:32.296Z,29.23
2022-11-09T02:55:02.360Z,31.10
2022-11-09T02:57:29.359Z,30.67
2022-11-09T02:59:56.466Z,31.02
2022-11-09T03:02:30.708Z,30.38
2022-11-09T03:04:57.796Z,30.65
2022-11-09T03:07:24.838Z,30.55
2022-11-09T03:09:54.800Z,29.45
2022-11-09T03:12:31.796Z,29.20
2022-11-09T03:15:04.511Z,27.77
2022-11-09T03:17:32.841Z,28.77
2022-11-09T03:19:59.828Z,27.95
2022-11-09T03:22:28.205Z,29.05
2022-11-09T03:24:56.325Z,26.58
2022-11-09T03:27:26.320Z,28.27
2022-11-09T03:29:53.452Z,27.48
2022-11-09T03:32:21.612Z,28.00
2022-11-09T03:34:49.673Z,27.75
2022-11-09T03:37:18.983Z,28.90
2022-11-09T03:39:49.195Z,28.25
2022-11-09T03:42:30.287Z,30.13
2022-11-09T03:45:01.419Z,26.02
2022-11-09T03:47:45.821Z,27.00
2022-11-09T03:50:15.756Z,29.30
2022-11-09T03:52:47.244Z,29.25
2022-11-09T03:55:16.281Z,28.23
2022-11-09T03:57:46.432Z,27.85
2022-11-09T04:00:16.274Z,28.00
2022-11-09T04:02:44.620Z,27.90
2022-11-09T04:05:13.028Z,28.80
2022-11-09T04:07:48.623Z,29.42
2022-11-09T04:10:15.921Z,29.73
2022-11-09T04:12:49.328Z,28.63
2022-11-09T04:15:17.925Z,29.80
2022-11-09T04:18:00.731Z,29.23
2022-11-09T04:20:29.709Z,29.83
2022-11-09T04:23:01.653Z,30.20
2022-11-09T04:25:36.526Z,29.27
2022-11-09T04:28:05.159Z,29.88
2022-11-09T04:30:35.208Z,30.20
2022-11-09T04:33:03.365Z,29.17
2022-11-09T04:35:32.415Z,29.52
2022-11-09T04:38:06.848Z,30.65
2022-11-09T04:40:36.527Z,30.33
2022-11-09T04:43:13.219Z,29.52
2022-11-09T04:45:42.400Z,30.65
2022-11-09T04:48:11.481Z,30.95
2022-11-09T04:50:42.707Z,31.02
2022-11-09T04:53:15.805Z,31.95
2022-11-09T04:55:44.247Z,32.50
2022-11-09T04:58:14.238Z,31.83
2022-11-09T05:00:42.365Z,31.27
2022-11-09T05:03:11.426Z,31.15
2022-11-09T05:05:44.068Z,29.83
2022-11-09T05:08:14.363Z,29.85
2022-11-09T05:10:47.241Z,31.08
2022-11-09T05:13:14.737Z,30.30
2022-11-09T05:15:43.871Z,29.75
2022-11-09T05:18:12.061Z,30.02
2022-11-09T05:20:39.226Z,29.20
2022-11-09T05:23:33.860Z,30.40
2022-11-09T05:26:00.961Z,30.42
2022-11-09T05:28:34.110Z,30.75
2022-11-09T05:31:07.380Z,31.73
2022-11-09T05:33:45.585Z,31.35
2022-11-09T05:36:22.651Z,30.15
2022-11-09T05:38:59.108Z,30.13
2022-11-09T05:41:27.508Z,31.27
2022-11-09T05:43:57.650Z,31.52
2022-11-09T05:46:25.570Z,31.15
2022-11-09T05:48:58.645Z,31.98
2022-11-09T05:51:26.628Z,30.85
2022-11-09T05:53:54.788Z,32.42
2022-11-09T05:56:22.824Z,30.02
2022-11-09T05:58:49.880Z,29.95
2022-11-09T06:01:19.308Z,31.30
2022-11-09T06:03:46.523Z,29.95
2022-11-09T06:06:15.454Z,31.35
2022-11-09T06:08:43.455Z,30.35
2022-11-09T06:11:13.061Z,32.25
2022-11-09T06:13:41.823Z,31.38
2022-11-09T06:16:10.653Z,29.40
2022-11-09T06:18:38.084Z,31.50
2022-11-09T06:21:06.146Z,31.35
2022-11-09T06:23:35.877Z,30.92
2022-11-09T06:26:10.755Z,31.15
2022-11-09T06:28:40.093Z,31.38
2022-11-09T06:31:11.929Z,30.88
2022-11-09T06:33:40.116Z,31.77
2022-11-09T06:36:11.575Z,32.75
2022-11-09T06:38:40.903Z,32.75
2022-11-09T06:41:10.897Z,30.05
2022-11-09T06:43:45.122Z,32.90
2022-11-09T06:46:17.453Z,31.20
2022-11-09T06:48:48.314Z,31.02
2022-11-09T06:51:28.541Z,31.23
2022-11-09T06:53:56.561Z,31.20
2022-11-09T06:56:30.468Z,28.92
2022-11-09T06:58:59.851Z,29.65
2022-11-09T07:01:29.028Z,29.50
2022-11-09T07:03:56.346Z,29.65
2022-11-09T07:06:23.547Z,31.55
2022-11-09T07:08:50.582Z,30.75
2022-11-09T07:11:20.053Z,32.13
2022-11-09T07:13:56.230Z,31.60
2022-11-09T07:16:25.539Z,30.95
2022-11-09T07:18:54.904Z,31.20
2022-11-09T07:21:21.843Z,33.28
2022-11-09T07:23:55.020Z,33.67
2022-11-09T07:26:26.131Z,33.53
2022-11-09T07:28:54.582Z,32.95
2022-11-09T07:31:29.680Z,31.05
2022-11-09T07:34:05.088Z,31.63
2022-11-09T07:36:34.494Z,31.98
2022-11-09T07:39:04.664Z,30.40
2022-11-09T07:41:35.715Z,31.52
2022-11-09T07:44:06.860Z,30.00
2022-11-09T07:46:36.194Z,28.45
2022-11-09T07:49:03.313Z,28.98
2022-11-09T07:51:30.428Z,28.52
2022-11-09T07:54:04.507Z,30.45
2022-11-09T07:56:33.043Z,28.13
2022-11-09T07:59:04.155Z,29.38
2022-11-09T08:01:50.463Z,27.83
2022-11-09T08:04:17.635Z,28.65
2022-11-09T08:06:48.699Z,26.60
2022-11-09T08:09:15.729Z,28.15
2022-11-09T08:11:44.620Z,28.13
2022-11-09T08:14:11.638Z,27.88
2022-11-09T08:16:45.703Z,27.33
2022-11-09T08:19:14.871Z,24.63
2022-11-09T08:21:42.288Z,24.77
2022-11-09T08:24:09.387Z,24.65
2022-11-09T08:26:42.270Z,23.65
2022-11-09T08:29:18.083Z,23.60
2022-11-09T08:31:46.288Z,24.80
2022-11-09T08:34:28.120Z,25.25
2022-11-09T08:37:02.642Z,20.83
2022-11-09T08:39:29.626Z,24.75
2022-11-09T08:41:58.815Z,22.75
2022-11-09T08:44:30.908Z,24.35
2022-11-09T08:46:58.136Z,23.98
2022-11-09T08:49:25.091Z,23.30
2022-11-09T08:51:52.002Z,24.35
2022-11-09T08:54:19.234Z,25.08
2022-11-09T08:56:56.047Z,24.13
2022-11-09T08:59:24.272Z,23.60
2022-11-09T09:01:52.388Z,21.67
2022-11-09T09:04:20.338Z,23.50
2022-11-09T09:06:48.645Z,23.55
2022-11-09T09:09:15.697Z,22.65
2022-11-09T09:11:47.067Z,23.92
2022-11-09T09:14:15.245Z,22.48
2022-11-09T09:16:42.881Z,23.35
2022-11-09T09:19:15.817Z,19.83
2022-11-09T09:21:44.086Z,23.73
2022-11-09T09:24:12.194Z,23.27
2022-11-09T09:26:41.254Z,22.73
2022-11-09T09:29:13.598Z,21.53
2022-11-09T09:31:53.886Z,22.73
2022-11-09T09:34:24.845Z,22.83
2022-11-09T09:36:53.985Z,22.52
2022-11-09T09:39:41.022Z,22.80
2022-11-09T09:42:20.623Z,21.08
2022-11-09T09:45:02.842Z,20.33
2022-11-09T09:47:56.584Z,22.70
2022-11-09T09:50:30.541Z,21.88
2022-11-09T09:53:23.776Z,20.08
2022-11-09T09:56:04.053Z,20.63
2022-11-09T09:58:35.358Z,20.70
2022-11-09T10:01:15.614Z,19.88
2022-11-09T10:03:42.831Z,20.33
2022-11-09T10:06:51.483Z,21.63
2022-11-09T10:10:01.088Z,22.13
2022-11-09T10:12:46.965Z,22.60
2022-11-09T10:15:36.267Z,22.25
2022-11-09T10:18:42.719Z,21.45
2022-11-09T10:21:35.426Z,20.25
2022-11-09T10:24:08.380Z,21.02
2022-11-09T10:26:52.670Z,19.35
2022-11-09T10:29:34.160Z,20.38
2022-11-09T10:32:17.499Z,19.95
2022-11-09T10:34:55.039Z,19.77
2022-11-09T10:37:40.119Z,21.10
2022-11-09T10:40:27.690Z,20.20
2022-11-09T10:43:10.160Z,20.90
2022-11-09T10:45:39.884Z,20.23
2022-11-09T10:48:08.935Z,19.38
2022-11-09T10:50:52.926Z,20.80
2022-11-09T10:56:22.033Z,19.73
2022-11-09T10:58:57.382Z,21.35
2022-11-09T11:01:26.399Z,21.02
2022-11-09T11:03:57.550Z,20.90
2022-11-09T11:06:44.430Z,21.45
2022-11-09T11:09:12.467Z,21.38
2022-11-09T11:12:16.083Z,21.88
2022-11-09T11:14:45.477Z,21.48
2022-11-09T11:17:37.095Z,20.95
2022-11-09T11:20:31.262Z,22.52
2022-11-09T11:23:20.769Z,22.00
2022-11-09T11:26:04.088Z,22.10
2022-11-09T11:28:40.652Z,21.48
2022-11-09T11:31:14.329Z,22.88
2022-11-09T11:33:44.385Z,21.05
2022-11-09T11:36:51.676Z,21.55
2022-11-09T11:39:47.585Z,21.10
2022-11-09T11:42:53.243Z,20.85
2022-11-09T11:45:43.194Z,20.75
2022-11-09T11:48:43.095Z,21.63
2022-11-09T11:51:21.856Z,20.25
2022-11-09T11:54:17.700Z,19.00
2022-11-09T11:57:29.416Z,19.17
2022-11-09T12:00:04.648Z,19.63
2022-11-09T12:03:02.107Z,18.10
2022-11-09T12:05:59.766Z,17.70
2022-11-09T12:08:50.169Z,18.15
2022-11-09T12:11:36.050Z,18.90
2022-11-09T12:14:04.942Z,17.88
2022-11-09T12:17:03.570Z,19.02
2022-11-09T12:20:09.617Z,18.58
2022-11-09T12:23:11.100Z,18.80
2022-11-09T12:25:50.554Z,17.25
2022-11-09T12:28:38.915Z,18.42
2022-11-09T12:31:36.440Z,18.58
2022-11-09T12:34:50.356Z,18.17
2022-11-09T12:37:28.364Z,17.63
2022-11-09T12:40:13.975Z,17.92
2022-11-09T12:42:56.616Z,17.55
2022-11-09T12:45:30.754Z,18.05
2022-11-09T12:48:26.282Z,18.13
2022-11-09T12:50:54.420Z,17.77
2022-11-09T12:53:24.834Z,18.15
2022-11-09T12:56:15.214Z,18.30
2022-11-09T12:58:42.306Z,19.67
2022-11-09T13:01:33.476Z,18.55
2022-11-09T13:04:02.848Z,18.42
2022-11-09T13:06:34.016Z,18.58
2022-11-09T13:09:16.641Z,19.15
2022-11-09T13:11:51.757Z,19.42
2022-11-09T13:14:27.444Z,18.13
2022-11-09T13:17:31.334Z,18.20
2022-11-09T13:19:58.358Z,19.23
2022-11-09T13:22:28.092Z,17.52
2022-11-09T13:25:02.043Z,18.40
2022-11-09T13:27:42.605Z,18.50
2022-11-09T13:30:33.555Z,18.17
2022-11-09T13:33:06.554Z,18.55
2022-11-09T13:35:42.477Z,18.27
2022-11-09T13:38:18.218Z,20.88
2022-11-09T13:40:49.872Z,18.70
2022-11-09T13:43:22.933Z,18.42
2022-11-09T13:45:50.136Z,19.20
2022-11-09T13:48:50.562Z,18.00
2022-11-09T13:51:38.050Z,18.58
2022-11-09T13:54:32.760Z,17.88
2022-11-09T13:57:10.031Z,18.77
2022-11-09T13:59:47.782Z,18.90
2022-11-09T14:02:23.481Z,19.20
2022-11-09T14:04:50.744Z,20.10
2022-11-09T14:07:33.179Z,19.85
2022-11-09T14:10:41.641Z,20.25
2022-11-09T14:13:37.126Z,18.77
2022-11-09T14:16:09.036Z,19.10
2022-11-09T14:19:20.525Z,18.30
2022-11-09T14:21:53.939Z,19.55
2022-11-09T14:24:25.482Z,20.10
2022-11-09T14:27:11.042Z,19.40
2022-11-09T14:29:51.119Z,19.45
2022-11-09T14:32:37.174Z,19.90
2022-11-09T14:35:36.205Z,19.45
2022-11-09T14:38:37.290Z,20.70
2022-11-09T14:41:19.690Z,22.00
2022-11-09T14:43:50.311Z,20.80
2022-11-09T14:46:25.472Z,22.20
2022-11-09T14:48:56.682Z,21.05
2022-11-09T14:51:32.739Z,21.23
2022-11-09T14:54:02.988Z,22.45
2022-11-09T14:56:31.341Z,22.45
2022-11-09T14:58:58.840Z,22.52
2022-11-09T15:01:27.419Z,23.20
2022-11-09T15:04:15.104Z,22.33
2022-11-09T15:06:49.444Z,24.40
2022-11-09T15:09:20.327Z,24.42
2022-11-09T15:11:49.300Z,23.85
2022-11-09T15:14:34.922Z,25.17
2022-11-09T15:17:15.997Z,23.00
2022-11-09T15:19:51.496Z,22.65
2022-11-09T15:22:48.566Z,24.35
2022-11-09T15:25:31.158Z,23.15
2022-11-09T15:28:03.603Z,25.90
2022-11-09T15:30:46.682Z,24.20
2022-11-09T15:33:26.177Z,25.40
2022-11-09T15:36:18.107Z,24.90
2022-11-09T15:39:09.493Z,26.58
2022-11-09T15:41:41.966Z,28.08
2022-11-09T15:44:11.904Z,26.80
2022-11-09T15:46:54.965Z,25.67
2022-11-09T15:49:25.355Z,28.33
2022-11-09T15:51:53.834Z,27.15
2022-11-09T15:54:30.745Z,28.48
2022-11-09T15:56:59.921Z,27.02
2022-11-09T15:59:33.504Z,26.92
2022-11-09T16:02:00.710Z,28.20
2022-11-09T16:04:27.925Z,27.17
2022-11-09T16:06:55.260Z,27.48
2022-11-09T16:09:29.367Z,27.65
2022-11-09T16:11:58.784Z,27.20
2022-11-09T16:14:41.254Z,26.02
2022-11-09T16:17:11.693Z,26.27
2022-11-09T16:19:40.064Z,27.75
2022-11-09T16:22:10.254Z,26.15
2022-11-09T16:24:39.878Z,25.73
2022-11-09T16:27:12.869Z,26.60
2022-11-09T16:29:57.481Z,26.80
2022-11-09T16:32:25.551Z,26.95
2022-11-09T16:35:15.409Z,26.23
2022-11-09T16:37:43.176Z,30.02
2022-11-09T16:40:14.173Z,28.38
2022-11-09T16:43:01.353Z,31.00
2022-11-09T16:45:34.575Z,30.10
2022-11-09T16:48:10.931Z,28.65
2022-11-09T16:50:44.150Z,27.42
2022-11-09T16:53:12.949Z,27.80
2022-11-09T16:55:40.472Z,26.60
2022-11-09T16:58:10.918Z,25.58
2022-11-09T17:01:08.752Z,26.95
2022-11-09T17:03:50.147Z,27.52
2022-11-09T17:06:51.912Z,26.05
2022-11-09T17:09:16.411Z,28.10
2022-11-09T17:11:45.531Z,26.30
2022-11-09T17:14:14.676Z,27.67
2022-11-09T17:16:43.131Z,26.58
2022-11-09T17:19:11.225Z,25.98
2022-11-09T17:21:39.434Z,27.33
2022-11-09T17:24:08.774Z,27.20
2022-11-09T17:26:42.641Z,25.27
2022-11-09T17:29:10.184Z,28.75
2022-11-09T17:31:41.352Z,25.63
2022-11-09T17:34:16.473Z,26.02
2022-11-09T17:39:31.498Z,26.45
2022-11-09T17:42:00.543Z,25.70
2022-11-09T17:44:27.984Z,26.23
2022-11-09T17:46:57.328Z,26.55
2022-11-09T17:49:24.688Z,28.90
2022-11-09T17:51:53.767Z,28.10
2022-11-09T17:54:21.920Z,25.70
2022-11-09T17:56:52.831Z,26.63
2022-11-09T17:59:20.886Z,25.40
2022-11-09T18:01:48.251Z,26.25
2022-11-09T18:04:16.117Z,24.50
2022-11-09T18:06:49.296Z,27.02
2022-11-09T18:12:40.267Z,28.00
2022-11-09T18:15:08.203Z,28.80
2022-11-09T18:17:37.839Z,28.80
2022-11-09T18:20:15.627Z,27.58
2022-11-09T18:23:12.100Z,26.75
2022-11-09T18:26:14.262Z,26.27
2022-11-09T18:28:42.295Z,26.73
2022-11-09T18:31:15.217Z,27.20
2022-11-09T18:33:46.994Z,26.33
2022-11-09T18:36:17.436Z,26.83
2022-11-09T18:38:56.810Z,28.67
2022-11-09T18:41:37.919Z,31.25
2022-11-09T18:44:07.917Z,27.50
2022-11-09T18:46:37.837Z,28.10
2022-11-09T18:49:30.361Z,28.92
2022-11-09T18:52:06.096Z,28.63
2022-11-09T18:54:36.638Z,26.67
2022-11-09T18:57:06.212Z,26.98
2022-11-09T18:59:34.384Z,26.77
2022-11-09T19:02:02.590Z,28.05
2022-11-09T19:04:29.751Z,27.80
2022-11-09T19:06:59.252Z,27.48
2022-11-09T19:09:30.953Z,28.70
2022-11-09T19:12:13.941Z,29.40
2022-11-09T19:14:42.119Z,31.23
2022-11-09T19:17:15.329Z,29.90
2022-11-09T19:19:44.101Z,30.17
2022-11-09T19:22:19.680Z,35.83
2022-11-09T19:24:47.954Z,35.42
2022-11-09T19:27:16.567Z,38.13
2022-11-09T19:29:44.077Z,37.35
2022-11-09T19:32:11.484Z,36.13
2022-11-09T19:34:43.303Z,35.45
2022-11-09T19:37:10.449Z,37.53
2022-11-09T19:39:48.164Z,36.97
2022-11-09T19:42:15.860Z,38.00
2022-11-09T19:44:50.842Z,35.25
2022-11-09T19:47:21.150Z,36.72
2022-11-09T19:49:49.889Z,36.33
2022-11-09T19:52:23.320Z,35.47
2022-11-09T19:54:53.166Z,36.20
2022-11-09T19:57:20.764Z,34.95
2022-11-09T19:59:48.956Z,32.38
2022-11-09T20:02:16.140Z,31.48
2022-11-09T20:04:48.262Z,29.02
2022-11-09T20:07:15.995Z,25.42
2022-11-09T20:09:44.285Z,28.25
2022-11-09T20:12:30.981Z,25.95
2022-11-09T20:14:59.373Z,31.30
2022-11-09T20:17:27.374Z,31.00
2022-11-09T20:19:57.046Z,38.58
2022-11-09T20:22:30.577Z,30.48
2022-11-09T20:25:01.178Z,30.05
2022-11-09T20:27:32.315Z,32.55
2022-11-09T20:30:07.717Z,26.58
2022-11-09T20:32:36.161Z,29.58
2022-11-09T20:35:03.787Z,39.25
2022-11-09T20:37:38.020Z,27.33
2022-11-09T20:40:08.548Z,27.23
2022-11-09T20:42:36.423Z,28.17
2022-11-09T20:45:04.875Z,25.55
2022-11-09T20:48:02.117Z,25.67
2022-11-09T20:50:29.441Z,27.33
2022-11-09T20:52:59.372Z,28.48
2022-11-09T20:55:28.670Z,27.33
2022-11-09T20:57:57.061Z,29.38
2022-11-09T21:00:24.945Z,27.85
2022-11-09T21:02:53.101Z,28.73
2022-11-09T21:05:23.270Z,26.40
2022-11-09T21:08:02.696Z,41.70
2022-11-09T21:10:30.805Z,32.10
2022-11-09T21:12:58.044Z,29.02
2022-11-09T21:15:25.661Z,28.73
2022-11-09T21:17:54.151Z,27.80
2022-11-09T21:20:25.322Z,26.33
2022-11-09T21:23:12.015Z,27.48
2022-11-09T21:25:59.024Z,26.58
2022-11-09T21:28:46.849Z,26.88
2022-11-09T21:31:14.772Z,27.58
2022-11-09T21:33:43.020Z,27.38
2022-11-09T21:36:15.303Z,26.73
2022-11-09T21:38:43.579Z,25.95
2022-11-09T21:41:33.168Z,27.80
2022-11-09T21:44:11.102Z,29.00
2022-11-09T21:46:45.285Z,31.83
2022-11-09T21:49:17.433Z,33.08
2022-11-09T21:51:47.158Z,34.42
2022-11-09T21:54:14.327Z,31.27
2022-11-09T21:56:42.546Z,30.58
2022-11-09T21:59:11.664Z,28.63
2022-11-09T22:01:38.727Z,29.65
2022-11-09T22:04:07.757Z,29.35
2022-11-09T22:06:40.432Z,28.75
2022-11-09T22:09:12.660Z,31.13
2022-11-09T22:12:00.206Z,30.55
2022-11-09T22:14:45.980Z,32.55
2022-11-09T22:17:13.103Z,34.42
2022-11-09T22:19:59.991Z,32.72
2022-11-09T22:22:31.126Z,31.45
2022-11-09T22:25:23.371Z,31.60
2022-11-09T22:27:50.297Z,33.22
2022-11-09T22:30:17.437Z,32.85
2022-11-09T22:32:44.437Z,32.00
2022-11-09T22:35:12.044Z,34.42
2022-11-09T22:37:39.130Z,32.30
2022-11-09T22:40:07.070Z,31.63
2022-11-09T22:42:37.273Z,30.77
2022-11-09T22:45:07.645Z,31.95
2022-11-09T22:47:35.850Z,30.45
2022-11-09T22:50:04.203Z,32.13
2022-11-09T22:52:31.179Z,32.75
2022-11-09T22:54:58.395Z,31.52
2022-11-09T22:57:27.431Z,32.03
2022-11-09T23:00:01.369Z,29.60
2022-11-09T23:02:29.190Z,30.67
2022-11-09T23:04:57.230Z,31.55
2022-11-09T23:07:25.215Z,29.33
2022-11-09T23:09:52.250Z,29.40
2022-11-09T23:12:23.475Z,28.10
2022-11-09T23:15:05.652Z,29.10
2022-11-09T23:17:54.068Z,29.58
2022-11-09T23:20:23.311Z,29.35
2022-11-09T23:22:57.571Z,28.60
2022-11-09T23:25:51.586Z,27.83
2022-11-09T23:28:18.968Z,29.33
2022-11-09T23:30:47.083Z,30.13
2022-11-09T23:33:14.182Z,30.55
2022-11-09T23:35:44.304Z,29.65
2022-11-09T23:38:40.394Z,28.88
2022-11-09T23:41:11.809Z,29.02
2022-11-09T23:43:46.204Z,29.05
2022-11-09T23:46:17.572Z,28.98
2022-11-09T23:48:44.664Z,26.27
2022-11-09T23:51:18.920Z,26.92
2022-11-09T23:53:47.084Z,27.05
2022-11-09T23:56:16.312Z,26.45
2022-11-09T23:58:45.856Z,27.10
